Airfield :
LOGIN :

Register | Disclaimer

   EN    FR    IT 

 










Legend :    VFR   Marginal VFR   IFR   Intensive IFR   Very Intensive IFR
Visi :
Ceiling :
>= 8 km
>= 3000ft
5 to 8 km
1000 to 3000 ft
1500m to 5 km
500 to 1000 ft
800 to 1500m
200 to 500 ft
< 800m
< 200 ft
Symbols :   Thunderstorms  Fog  Heavy snow  Heavy precipitations  Wind > 20 kt
SIGMETs :     Misc.  Thunderstorms  Icing  Turbulence  Mountain Waves  Volcanic Ashes







- Airport Elevation : 233 ft
- IATA code : REU


LERS - Reus Tarragona

CURRENT METAR :
  • 241330Z 18007KT 120V230 9999 FEW050 30/16 Q1018

EXPIRED METARs :
  • 241300Z 16007KT 110V200 9999 FEW050 30/17 Q1018
  • 241230Z 14006KT 080V190 9999 FEW050 31/17 Q1018
  • 241200Z 15006KT 080V210 9999 FEW045TCU 30/16 Q1019
  • 241130Z 14007KT 080V190 9999 FEW045TCU 30/17 Q1019
  • 241100Z 14006KT 070V200 9999 FEW045TCU 30/16 Q1019

TAF TAF LERS
Valid from the 24 at 09:00 until the 25 at 09:00 UTC


240800Z 2409/2509 VRB03KT 9999 FEW030 TX30/2413Z TN20/2505Z
BECMG 2409/2411 16010KT
BECMG 2418/2420 VRB03KT
No reported NOTAMs for that airfield.



MET'MAP, your aeronautical weather chart ! - Copyright ORBIFLY December 2007 - Disclaimer

ORBIFLY MET'MAP TEAM :

Programming & Development : Alexandra Zaïnal
Concept & Development : Baudouin d'Aumeries
Co-Development & Prog : Marc-Olivier Méhu
Technical & hardware support : Manuel Goepfert

Contact : metmap@orbifly.com




SOURCES & CREDITS :

   NOAA